Time;durP1;ratioP1;P1;durP2;ratioP2;P2;SDS_P1;SDS_P2;PMS_P1;PMS_P2;Temp;Humidity;BMP_temperature;BMP_pressure;BME280_temperature;BME280_humidity;BME280_pressure;Samples;Min_cycle;Max_cycle;Signal;HPM_P1;HPM_P2
2022/04/22 00:01:11;;;;;;;;;;;;;;;10.95;72.41;99911.06;4961733;28;1280;-90
2022/04/22 00:03:37;;;;;;;;;;;;;;;10.97;73.07;99918.97;4959786;28;1455;-90
2022/04/22 00:06:02;;;;;;;;;;;;;;;10.89;73.18;99908.66;4960836;28;1336;-89
2022/04/22 00:08:27;;;;;;;;;;;;;;;10.99;72.50;99906.59;4960555;28;1958;-90
2022/04/22 00:13:37;;;;;;;;;;;;;;;10.91;72.95;99904.53;4978260;28;607;-90
2022/04/22 00:16:02;;;;;;;;;;;;;;;10.68;74.51;99899.94;4960854;28;965;-90
2022/04/22 00:18:28;;;;;;;;;;;;;;;10.86;73.87;99903.78;4957915;28;1363;-91
2022/04/22 00:20:53;;;;;;;;;;;;;;;10.93;72.99;99894.09;4941858;29;1207;-91
2022/04/22 00:23:19;;;;;;;;;;;;;;;10.95;73.37;99893.81;4940541;29;1244;-91
2022/04/22 00:25:44;;;;;;;;;;;;;;;10.96;72.93;99892.69;4942317;29;1182;-90
2022/04/22 00:28:09;;;;;;;;;;;;;;;10.98;73.08;99901.41;4944629;29;1894;-91
2022/04/22 00:30:34;;;;;;;;;;;;;;;10.98;73.37;99880.31;4944899;29;1238;-91
2022/04/22 00:33:00;;;;;;;;;;;;;;;10.89;73.75;99887.56;4962075;29;1580;-90
2022/04/22 00:35:25;;;;;;;;;;;;;;;10.88;73.57;99876.94;4944643;29;1185;-90
2022/04/22 00:37:50;;;;;;;;;;;;;;;10.77;74.44;99887.22;4944295;29;1285;-90
2022/04/22 00:40:15;;;;;;;;;;;;;;;10.57;75.23;99879.31;4944526;29;1102;-90
2022/04/22 00:42:40;;;;;;;;;;;;;;;10.77;74.38;99875.47;4943699;29;1174;-90
2022/04/22 00:45:06;;;;;;;;;;;;;;;10.88;73.91;99875.03;4942457;29;1212;-89
2022/04/22 00:47:31;;;;;;;;;;;;;;;10.85;74.42;99875.59;4942714;29;1899;-89
2022/04/22 00:49:56;;;;;;;;;;;;;;;10.95;74.49;99874.63;4953363;28;1591;-90
2022/04/22 00:52:21;;;;;;;;;;;;;;;10.87;73.92;99876.13;4961645;28;1174;-90
2022/04/22 00:54:48;;;;;;;;;;;;;;;10.88;74.28;99872.28;4961152;28;1206;-89
2022/04/22 00:57:13;;;;;;;;;;;;;;;10.86;74.00;99862.72;4961398;28;1332;-90
2022/04/22 00:59:40;;;;;;;;;;;;;;;10.91;74.37;99866.19;4961491;28;1311;-90
2022/04/22 01:02:05;;;;;;;;;;;;;;;10.71;74.46;99857.50;4961328;28;1166;-89
2022/04/22 01:09:59;;;;;;;;;;;;;;;10.60;75.32;99846.69;4998279;28;675;-89
2022/04/22 01:12:25;;;;;;;;;;;;;;;10.64;75.72;99844.16;4980406;28;1315;-90
2022/04/22 01:14:51;;;;;;;;;;;;;;;10.77;74.75;99846.16;4980728;28;1205;-89
2022/04/22 01:17:16;;;;;;;;;;;;;;;10.81;74.94;99838.97;4980247;28;1384;-89
2022/04/22 01:19:41;;;;;;;;;;;;;;;10.70;74.84;99833.97;4969939;28;1482;-89
2022/04/22 01:22:07;;;;;;;;;;;;;;;10.57;75.47;99833.59;4978309;28;1419;-89
2022/04/22 01:24:32;;;;;;;;;;;;;;;10.58;75.40;99826.19;4960764;28;1331;-89
2022/04/22 01:26:58;;;;;;;;;;;;;;;10.58;75.71;99826.19;4978219;28;1951;-89
2022/04/22 01:29:23;;;;;;;;;;;;;;;10.66;75.40;99822.78;4960770;28;1195;-89
2022/04/22 01:31:48;;;;;;;;;;;;;;;10.75;75.61;99817.44;4961175;28;1155;-90
2022/04/22 01:34:13;;;;;;;;;;;;;;;10.80;74.78;99820.91;4960005;28;1402;-90
2022/04/22 01:36:39;;;;;;;;;;;;;;;10.74;75.38;99826.78;4960082;28;1261;-91
2022/04/22 01:39:04;;;;;;;;;;;;;;;10.70;75.08;99812.88;4959881;28;1256;-91
2022/04/22 01:41:29;;;;;;;;;;;;;;;10.77;75.68;99812.50;4977799;28;795;-91
2022/04/22 01:43:54;;;;;;;;;;;;;;;10.72;75.25;99810.66;4960624;28;1269;-91
2022/04/22 01:46:19;;;;;;;;;;;;;;;10.64;75.19;99814.06;4960415;28;1276;-91
2022/04/22 01:48:45;;;;;;;;;;;;;;;10.73;75.56;99805.97;4959961;28;1918;-91
2022/04/22 01:51:10;;;;;;;;;;;;;;;10.67;75.43;99802.53;4960174;28;1174;-91
2022/04/22 01:53:35;;;;;;;;;;;;;;;10.76;75.04;99803.47;4960090;28;1237;-91
2022/04/22 01:56:01;;;;;;;;;;;;;;;10.78;74.22;99803.19;4959807;28;1043;-91
2022/04/22 01:58:26;;;;;;;;;;;;;;;10.58;75.05;99807.03;4960107;28;1254;-91
2022/04/22 02:00:51;;;;;;;;;;;;;;;10.64;75.70;99805.84;4959930;28;1143;-91
2022/04/22 02:03:16;;;;;;;;;;;;;;;10.68;75.04;99804.16;4959733;28;989;-91
2022/04/22 02:05:41;;;;;;;;;;;;;;;10.69;74.75;99802.22;4960267;28;1185;-91
2022/04/22 02:08:07;;;;;;;;;;;;;;;10.72;74.64;99798.91;4959848;28;1906;-91
2022/04/22 02:10:32;;;;;;;;;;;;;;;10.56;75.26;99795.56;4959764;28;1307;-91
2022/04/22 02:12:58;;;;;;;;;;;;;;;10.65;74.61;99798.44;4959629;28;1320;-91
2022/04/22 02:15:24;;;;;;;;;;;;;;;10.64;74.44;99797.63;4959917;28;1162;-90
2022/04/22 02:17:49;;;;;;;;;;;;;;;10.56;74.88;99795.56;4959595;28;1315;-92
2022/04/22 02:20:14;;;;;;;;;;;;;;;10.62;75.17;99794.41;4959741;28;1343;-91
2022/04/22 02:22:39;;;;;;;;;;;;;;;10.67;74.56;99788.84;4959392;28;1172;-91
2022/04/22 02:25:06;;;;;;;;;;;;;;;10.49;75.20;99784.19;4959420;28;1126;-91
2022/04/22 02:30:15;;;;;;;;;;;;;;;10.54;75.27;99784.13;4991112;23;2027;-89
2022/04/22 02:32:41;;;;;;;;;;;;;;;10.52;74.58;99783.63;4958982;28;1388;-88
2022/04/22 02:35:06;;;;;;;;;;;;;;;10.49;75.38;99781.47;4958777;28;1201;-88
2022/04/22 02:37:31;;;;;;;;;;;;;;;10.53;75.09;99779.78;4958705;28;1316;-89
2022/04/22 02:39:56;;;;;;;;;;;;;;;10.43;74.64;99785.41;4955635;29;1274;-88
2022/04/22 02:47:49;;;;;;;;;;;;;;;10.54;75.37;99775.94;4956646;28;1927;-89
2022/04/22 02:50:14;;;;;;;;;;;;;;;10.39;75.29;99778.88;4954974;29;1202;-88
2022/04/22 02:52:40;;;;;;;;;;;;;;;10.39;75.33;99776.16;4939403;29;1178;-88
2022/04/22 02:55:05;;;;;;;;;;;;;;;10.48;75.44;99777.91;4956773;29;792;-89
2022/04/22 02:57:30;;;;;;;;;;;;;;;10.55;74.79;99767.41;4939130;29;1337;-89
2022/04/22 02:59:55;;;;;;;;;;;;;;;10.35;75.21;99773.19;4956655;28;1300;-88
2022/04/22 03:02:21;;;;;;;;;;;;;;;10.28;75.66;99775.50;4955393;29;1246;-89
2022/04/22 03:04:47;;;;;;;;;;;;;;;10.37;75.08;99768.25;4939459;29;900;-88
2022/04/22 03:07:12;;;;;;;;;;;;;;;10.30;74.84;99773.25;4938930;29;1969;-89
2022/04/22 03:09:38;;;;;;;;;;;;;;;10.46;74.75;99776.59;4939123;29;1312;-89
2022/04/22 03:12:03;;;;;;;;;;;;;;;10.44;74.56;99771.44;4938951;29;1017;-89
2022/04/22 03:14:29;;;;;;;;;;;;;;;10.39;73.95;99770.66;4956222;29;1059;-88
2022/04/22 03:16:54;;;;;;;;;;;;;;;10.35;74.69;99759.53;4939001;29;1340;-89
2022/04/22 03:19:19;;;;;;;;;;;;;;;10.28;75.44;99759.09;4926858;29;1578;-89
2022/04/22 03:21:44;;;;;;;;;;;;;;;10.22;75.08;99757.53;4919951;29;1171;-89
2022/04/22 03:24:11;;;;;;;;;;;;;;;10.21;75.41;99748.50;4919781;29;1213;-89
2022/04/22 03:26:36;;;;;;;;;;;;;;;10.16;75.02;99748.56;4919718;29;1340;-89
2022/04/22 03:29:01;;;;;;;;;;;;;;;10.19;75.08;99750.75;4936597;29;1894;-88
2022/04/22 03:31:26;;;;;;;;;;;;;;;10.24;75.12;99747.09;4919733;29;945;-89
2022/04/22 03:33:51;;;;;;;;;;;;;;;10.26;73.79;99736.69;4932889;29;1052;-89
2022/04/22 03:36:17;;;;;;;;;;;;;;;10.24;74.48;99736.97;4920014;29;875;-88
2022/04/22 03:38:43;;;;;;;;;;;;;;;10.36;74.85;99746.66;4919881;29;1351;-89
2022/04/22 03:41:08;;;;;;;;;;;;;;;10.38;74.54;99747.97;4919908;29;1258;-89
2022/04/22 03:43:33;;;;;;;;;;;;;;;10.46;73.49;99741.81;4936975;29;776;-89
2022/04/22 03:45:59;;;;;;;;;;;;;;;10.38;73.47;99750.72;4919525;29;1061;-89
2022/04/22 03:48:24;;;;;;;;;;;;;;;10.40;73.54;99747.69;4919468;29;1956;-89
2022/04/22 03:50:49;;;;;;;;;;;;;;;10.37;73.78;99745.56;4919882;29;899;-89
2022/04/22 03:53:14;;;;;;;;;;;;;;;10.39;73.52;99746.06;4919587;29;956;-89
2022/04/22 03:55:40;;;;;;;;;;;;;;;10.36;73.29;99742.00;4919544;29;1411;-89
2022/04/22 03:58:12;;;;;;;;;;;;;;;10.30;73.51;99736.88;4936567;29;838;-89
2022/04/22 04:00:41;;;;;;;;;;;;;;;10.27;74.08;99737.50;4928601;29;1290;-89
2022/04/22 04:03:07;;;;;;;;;;;;;;;10.34;74.63;99733.28;4942294;29;1233;-88
2022/04/22 04:05:32;;;;;;;;;;;;;;;10.32;73.64;99738.22;4942595;29;1475;-88
2022/04/22 04:07:57;;;;;;;;;;;;;;;10.41;74.39;99733.72;4959785;29;1960;-89
2022/04/22 04:16:00;;;;;;;;;;;;;;;10.37;73.38;99731.88;4953979;29;1507;-89
2022/04/22 04:18:30;;;;;;;;;;;;;;;10.44;73.55;99737.78;4942086;29;1277;-89
2022/04/22 04:23:39;;;;;;;;;;;;;;;10.40;74.12;99736.72;4959561;29;682;-88
2022/04/22 04:26:07;;;;;;;;;;;;;;;10.32;74.13;99740.16;4942055;29;1261;-88
2022/04/22 04:28:33;;;;;;;;;;;;;;;10.35;73.40;99737.63;4941721;28;1907;-89
2022/04/22 04:30:58;;;;;;;;;;;;;;;10.36;73.74;99731.06;4942400;29;1349;-90
2022/04/22 04:33:24;;;;;;;;;;;;;;;10.28;74.27;99734.47;4942292;29;1256;-89
2022/04/22 04:35:50;;;;;;;;;;;;;;;10.24;74.28;99734.25;4942208;29;1400;-90
2022/04/22 04:38:16;;;;;;;;;;;;;;;10.27;73.97;99735.59;4941751;29;1282;-90
2022/04/22 04:40:41;;;;;;;;;;;;;;;10.23;74.35;99729.88;4941835;29;1336;-89
2022/04/22 04:43:06;;;;;;;;;;;;;;;10.31;74.73;99730.31;4958914;28;794;-88
2022/04/22 04:45:32;;;;;;;;;;;;;;;10.28;74.00;99725.47;4941690;29;1044;-89
2022/04/22 04:47:57;;;;;;;;;;;;;;;10.20;75.10;99722.28;4941564;29;1883;-89
2022/04/22 04:50:22;;;;;;;;;;;;;;;10.27;74.87;99721.91;4942349;29;1272;-89
2022/04/22 04:52:47;;;;;;;;;;;;;;;10.32;75.13;99721.00;4941474;29;1268;-89
2022/04/22 04:55:15;;;;;;;;;;;;;;;10.39;74.81;99724.16;4958764;29;1047;-89
2022/04/22 04:57:42;;;;;;;;;;;;;;;10.36;74.90;99727.50;4941738;29;1344;-89
2022/04/22 05:00:08;;;;;;;;;;;;;;;10.24;74.60;99727.97;4941321;29;1329;-88
2022/04/22 05:02:34;;;;;;;;;;;;;;;10.32;74.67;99729.22;4933415;29;1308;-88
2022/04/22 05:05:00;;;;;;;;;;;;;;;10.34;74.58;99722.34;4941155;29;1340;-89
2022/04/22 05:07:25;;;;;;;;;;;;;;;10.42;74.51;99729.88;4941100;29;1972;-89
2022/04/22 05:09:50;;;;;;;;;;;;;;;10.42;74.98;99718.09;4937898;29;1336;-88
2022/04/22 05:12:15;;;;;;;;;;;;;;;10.38;74.32;99722.56;4921951;29;1203;-88
2022/04/22 05:14:40;;;;;;;;;;;;;;;10.39;75.32;99729.63;4921978;29;1327;-89
2022/04/22 05:17:06;;;;;;;;;;;;;;;10.36;75.05;99722.03;4922264;29;1328;-89
2022/04/22 05:19:31;;;;;;;;;;;;;;;10.47;75.20;99715.28;4938915;29;1195;-88
2022/04/22 05:21:56;;;;;;;;;;;;;;;10.25;75.31;99713.19;4921849;29;1304;-89
2022/04/22 05:24:21;;;;;;;;;;;;;;;10.24;75.98;99709.63;4932392;29;1850;-89
2022/04/22 05:26:47;;;;;;;;;;;;;;;10.22;75.90;99713.75;4940825;29;1910;-89
2022/04/22 05:34:40;;;;;;;;;;;;;;;10.38;75.17;99700.69;4958035;29;680;-89
2022/04/22 05:37:05;;;;;;;;;;;;;;;10.25;75.83;99696.78;4940997;29;1206;-89
2022/04/22 05:39:31;;;;;;;;;;;;;;;10.33;75.01;99695.28;4937170;29;1796;-88
2022/04/22 05:41:56;;;;;;;;;;;;;;;10.36;75.07;99702.91;4928960;29;1075;-88
2022/04/22 05:44:21;;;;;;;;;;;;;;;10.43;75.17;99695.13;4940244;29;1380;-88
2022/04/22 05:46:46;;;;;;;;;;;;;;;10.55;75.41;99699.00;4940376;29;1964;-89
2022/04/22 05:49:11;;;;;;;;;;;;;;;10.51;74.84;99700.72;4957899;29;1206;-88
2022/04/22 05:51:36;;;;;;;;;;;;;;;10.35;75.08;99704.81;4939846;29;1640;-89
2022/04/22 05:54:02;;;;;;;;;;;;;;;10.45;75.42;99703.84;4940539;29;1261;-88
2022/04/22 05:56:29;;;;;;;;;;;;;;;10.55;75.43;99704.47;4940307;29;1166;-88
2022/04/22 05:58:54;;;;;;;;;;;;;;;10.66;74.98;99707.03;4939810;29;1523;-89
2022/04/22 06:01:20;;;;;;;;;;;;;;;10.67;74.51;99700.44;4940291;29;1222;-89
2022/04/22 06:03:45;;;;;;;;;;;;;;;10.71;74.83;99701.47;4940106;29;1246;-89
2022/04/22 06:06:10;;;;;;;;;;;;;;;10.49;74.79;99704.84;4939505;29;1789;-89
2022/04/22 06:11:19;;;;;;;;;;;;;;;10.47;75.28;99705.16;4957654;29;633;-88
2022/04/22 06:13:47;;;;;;;;;;;;;;;10.41;75.30;99703.63;4939783;29;1033;-88
2022/04/22 06:16:12;;;;;;;;;;;;;;;10.55;75.81;99692.69;4940091;29;1320;-88
2022/04/22 06:18:53;;;;;;;;;;;;;;;10.54;74.57;99699.31;4940065;29;1253;-88
2022/04/22 06:21:18;;;;;;;;;;;;;;;10.59;76.30;99696.47;4970325;28;1557;-89
2022/04/22 06:23:43;;;;;;;;;;;;;;;10.77;75.14;99698.34;4939044;29;1229;-88
2022/04/22 06:26:09;;;;;;;;;;;;;;;10.80;75.06;99696.94;4939802;29;1262;-88
2022/04/22 06:28:34;;;;;;;;;;;;;;;10.63;74.57;99693.97;4939747;28;1902;-89
2022/04/22 06:30:59;;;;;;;;;;;;;;;10.77;75.56;99703.00;4939720;29;1335;-88
2022/04/22 06:33:25;;;;;;;;;;;;;;;10.89;74.98;99697.84;4939366;29;1201;-88
2022/04/22 06:35:50;;;;;;;;;;;;;;;10.98;74.90;99690.56;4955735;28;1277;-89
2022/04/22 06:38:16;;;;;;;;;;;;;;;10.83;74.36;99696.31;4956685;28;1272;-89
2022/04/22 06:46:09;;;;;;;;;;;;;;;10.94;74.72;99698.59;4937791;29;659;-89
2022/04/22 06:48:35;;;;;;;;;;;;;;;11.11;74.47;99681.56;4932994;29;1960;-88
2022/04/22 06:51:00;;;;;;;;;;;;;;;11.16;73.92;99681.44;4939370;29;1396;-88
2022/04/22 06:53:26;;;;;;;;;;;;;;;11.12;74.92;99682.38;4939255;29;1229;-89
2022/04/22 06:55:53;;;;;;;;;;;;;;;11.26;74.39;99688.66;4939295;29;1222;-89
2022/04/22 06:58:19;;;;;;;;;;;;;;;11.32;73.73;99687.41;4939070;29;1262;-88
2022/04/22 07:00:45;;;;;;;;;;;;;;;11.23;73.59;99681.03;4938962;29;1362;-88
2022/04/22 07:03:11;;;;;;;;;;;;;;;11.15;73.99;99682.56;4939053;29;1322;-88
2022/04/22 07:05:37;;;;;;;;;;;;;;;11.35;73.74;99682.16;4939391;29;1245;-90
2022/04/22 07:08:04;;;;;;;;;;;;;;;11.53;73.20;99679.59;4938910;29;1890;-89
2022/04/22 07:10:30;;;;;;;;;;;;;;;11.25;73.37;99684.28;4938819;29;1266;-89
2022/04/22 07:12:56;;;;;;;;;;;;;;;11.50;73.44;99691.97;4938894;29;1210;-89
2022/04/22 07:15:21;;;;;;;;;;;;;;;11.42;73.68;99683.66;4938876;29;1261;-89
2022/04/22 07:17:46;;;;;;;;;;;;;;;11.63;73.38;99685.69;4956287;29;1096;-89
2022/04/22 07:20:13;;;;;;;;;;;;;;;11.79;72.40;99688.94;4924503;29;1320;-88
2022/04/22 07:22:39;;;;;;;;;;;;;;;11.74;72.36;99680.78;4919913;29;1404;-88
2022/04/22 07:25:07;;;;;;;;;;;;;;;11.66;72.13;99679.56;4919729;29;1200;-89
2022/04/22 07:27:34;;;;;;;;;;;;;;;11.66;72.25;99682.31;4919888;29;1891;-90
2022/04/22 07:29:59;;;;;;;;;;;;;;;11.69;72.14;99683.63;4919481;29;1259;-88
2022/04/22 07:32:25;;;;;;;;;;;;;;;11.77;72.23;99687.59;4919968;29;1232;-89
2022/04/22 07:34:51;;;;;;;;;;;;;;;11.85;72.00;99684.94;4919539;29;1324;-89
2022/04/22 07:37:16;;;;;;;;;;;;;;;11.81;71.97;99685.88;4919545;29;1219;-89
2022/04/22 07:39:41;;;;;;;;;;;;;;;11.88;71.88;99686.28;4922690;29;1208;-89
2022/04/22 07:42:07;;;;;;;;;;;;;;;11.81;71.23;99680.41;4955699;29;1330;-88
2022/04/22 07:47:18;;;;;;;;;;;;;;;11.82;71.25;99684.78;4955949;29;1902;-89
2022/04/22 07:49:44;;;;;;;;;;;;;;;11.72;71.63;99683.03;4938336;29;1276;-88
2022/04/22 07:52:09;;;;;;;;;;;;;;;11.56;71.86;99677.06;4938656;29;1210;-89
2022/04/22 07:54:34;;;;;;;;;;;;;;;11.70;71.28;99680.59;4935247;29;1367;-88
2022/04/22 07:56:59;;;;;;;;;;;;;;;11.60;71.68;99686.28;4919526;29;1257;-89
2022/04/22 07:59:26;;;;;;;;;;;;;;;11.46;72.34;99680.03;4919467;29;1196;-89
2022/04/22 08:01:52;;;;;;;;;;;;;;;11.49;72.21;99692.28;4951273;28;1324;-89
2022/04/22 08:04:18;;;;;;;;;;;;;;;11.42;72.42;99694.63;4973679;28;1337;-89
2022/04/22 08:06:43;;;;;;;;;;;;;;;11.52;72.41;99687.00;4973565;28;1237;-89
2022/04/22 08:09:08;;;;;;;;;;;;;;;11.22;72.56;99690.38;4958069;28;1969;-89
2022/04/22 08:11:34;;;;;;;;;;;;;;;11.32;73.29;99698.38;4938202;29;1070;-89
2022/04/22 08:13:59;;;;;;;;;;;;;;;11.38;72.54;99699.91;4955361;28;857;-88
2022/04/22 08:16:24;;;;;;;;;;;;;;;11.30;72.82;99695.16;4938212;29;1234;-89
2022/04/22 08:18:49;;;;;;;;;;;;;;;11.23;72.69;99687.31;4938399;29;1289;-88
2022/04/22 08:21:14;;;;;;;;;;;;;;;11.24;72.59;99694.44;4936184;29;1826;-89
2022/04/22 08:23:40;;;;;;;;;;;;;;;11.28;72.15;99684.50;4931075;29;1242;-89
2022/04/22 08:26:05;;;;;;;;;;;;;;;11.35;72.29;99695.84;4938259;29;831;-89
2022/04/22 08:28:30;;;;;;;;;;;;;;;11.40;72.31;99694.91;4938182;29;1957;-89
2022/04/22 08:30:55;;;;;;;;;;;;;;;11.49;71.66;99697.75;4938275;29;898;-88
2022/04/22 08:33:21;;;;;;;;;;;;;;;11.38;71.19;99695.25;4955018;29;828;-89
2022/04/22 08:35:46;;;;;;;;;;;;;;;11.19;71.56;99683.59;4955385;29;861;-88
2022/04/22 08:38:11;;;;;;;;;;;;;;;11.13;71.87;99700.44;4938090;29;1352;-88
2022/04/22 08:40:39;;;;;;;;;;;;;;;11.10;72.31;99695.53;4938342;29;846;-88
2022/04/22 08:43:07;;;;;;;;;;;;;;;11.02;71.64;99693.50;4937967;29;1217;-88
2022/04/22 08:45:33;;;;;;;;;;;;;;;11.00;71.96;99691.06;4938436;29;1214;-88
2022/04/22 08:50:43;;;;;;;;;;;;;;;11.30;71.32;99693.22;4958867;29;1448;-88
2022/04/22 08:53:11;;;;;;;;;;;;;;;11.54;70.60;99689.44;4941375;29;1189;-89
2022/04/22 08:55:36;;;;;;;;;;;;;;;11.62;70.54;99696.94;4941358;29;1229;-89
2022/04/22 08:58:05;;;;;;;;;;;;;;;11.62;69.85;99697.75;4941496;29;1213;-88
2022/04/22 09:00:33;;;;;;;;;;;;;;;11.39;70.33;99690.59;4958506;29;1186;-89
2022/04/22 09:02:58;;;;;;;;;;;;;;;11.38;69.80;99705.41;4940985;29;1677;-88
2022/04/22 09:05:24;;;;;;;;;;;;;;;11.30;70.97;99700.63;4941226;29;1249;-89
2022/04/22 09:07:50;;;;;;;;;;;;;;;11.32;70.48;99703.84;4941142;29;1894;-89
2022/04/22 09:10:15;;;;;;;;;;;;;;;11.38;70.89;99703.47;4941258;29;1344;-88
2022/04/22 09:12:48;;;;;;;;;;;;;;;11.24;71.01;99704.56;4941133;29;1173;-89
2022/04/22 09:15:14;;;;;;;;;;;;;;;11.10;71.68;99709.25;4941295;29;1194;-89
2022/04/22 09:17:40;;;;;;;;;;;;;;;11.18;71.15;99703.06;4940993;29;1234;-89
2022/04/22 09:20:06;;;;;;;;;;;;;;;11.25;70.99;99701.53;4941188;29;1183;-89
2022/04/22 09:22:35;;;;;;;;;;;;;;;11.37;70.91;99699.09;4940990;29;1226;-89
2022/04/22 09:25:01;;;;;;;;;;;;;;;11.45;70.29;99697.59;4940844;29;1364;-89
2022/04/22 09:27:36;;;;;;;;;;;;;;;11.48;70.43;99694.25;4940892;29;1886;-88
2022/04/22 09:30:03;;;;;;;;;;;;;;;11.56;70.37;99699.00;4940658;29;1335;-88
2022/04/22 09:32:29;;;;;;;;;;;;;;;11.63;70.44;99695.84;4940736;29;1249;-88
2022/04/22 09:34:55;;;;;;;;;;;;;;;11.58;70.49;99683.03;4940412;29;1138;-89
2022/04/22 09:42:53;;;;;;;;;;;;;;;11.85;69.95;99682.19;4958093;29;594;-88
2022/04/22 09:45:18;;;;;;;;;;;;;;;12.01;68.84;99669.75;4940359;29;1361;-89
2022/04/22 09:47:43;;;;;;;;;;;;;;;12.27;68.01;99672.72;4937009;29;1899;-88
2022/04/22 09:50:13;;;;;;;;;;;;;;;12.34;68.27;99670.34;4937367;29;1271;-90
2022/04/22 09:52:43;;;;;;;;;;;;;;;12.18;67.97;99669.09;4921402;29;1230;-89
2022/04/22 09:55:08;;;;;;;;;;;;;;;12.08;68.60;99669.31;4937432;29;1277;-89
2022/04/22 09:57:53;;;;;;;;;;;;;;;12.08;68.69;99670.13;4921064;29;1301;-88
2022/04/22 10:00:19;;;;;;;;;;;;;;;12.15;68.42;99671.66;4978361;23;1654;-89
2022/04/22 10:02:47;;;;;;;;;;;;;;;12.05;68.70;99668.03;4956568;29;1230;-90
2022/04/22 10:05:12;;;;;;;;;;;;;;;12.07;68.43;99663.06;4957004;29;981;-90
2022/04/22 10:07:40;;;;;;;;;;;;;;;12.06;68.13;99668.84;4939778;29;1988;-89
2022/04/22 10:10:06;;;;;;;;;;;;;;;12.03;68.11;99667.53;4950057;29;1428;-89
2022/04/22 10:12:31;;;;;;;;;;;;;;;11.90;68.54;99667.59;4946635;28;1381;-88
2022/04/22 10:15:01;;;;;;;;;;;;;;;11.80;68.98;99667.81;4974687;28;1246;-89
2022/04/22 10:17:27;;;;;;;;;;;;;;;11.73;69.01;99660.78;4976129;28;857;-89
2022/04/22 10:19:53;;;;;;;;;;;;;;;11.71;69.33;99663.03;4954343;29;1749;-89
2022/04/22 10:22:18;;;;;;;;;;;;;;;11.50;70.04;99669.25;4939502;29;1302;-89
2022/04/22 10:24:44;;;;;;;;;;;;;;;11.56;70.26;99665.28;4939267;29;1371;-89
2022/04/22 10:27:10;;;;;;;;;;;;;;;11.61;69.96;99663.25;4956584;28;1895;-90
2022/04/22 10:29:36;;;;;;;;;;;;;;;11.68;69.80;99662.81;4939109;29;1266;-90
2022/04/22 10:32:05;;;;;;;;;;;;;;;11.84;69.37;99666.88;4939372;29;1261;-90
2022/04/22 10:34:37;;;;;;;;;;;;;;;12.06;68.79;99666.91;4955114;28;1222;-89
2022/04/22 10:37:03;;;;;;;;;;;;;;;12.25;67.84;99666.72;4975584;28;794;-90
2022/04/22 10:39:31;;;;;;;;;;;;;;;12.49;67.78;99659.00;4958114;28;1316;-90
2022/04/22 10:41:56;;;;;;;;;;;;;;;12.70;67.09;99658.44;4958310;28;1201;-89
2022/04/22 10:47:14;;;;;;;;;;;;;;;12.91;65.06;99655.97;4970789;28;1906;-89
2022/04/22 10:49:41;;;;;;;;;;;;;;;12.61;65.80;99643.84;4956420;29;1242;-89
2022/04/22 10:52:10;;;;;;;;;;;;;;;12.76;66.06;99651.72;4939128;29;1269;-88
2022/04/22 10:54:54;;;;;;;;;;;;;;;12.93;65.88;99642.75;4938876;29;1474;-90
2022/04/22 10:57:19;;;;;;;;;;;;;;;12.98;65.71;99643.41;4939238;29;1268;-91
2022/04/22 10:59:44;;;;;;;;;;;;;;;12.67;65.60;99645.38;4938655;29;1200;-89
2022/04/22 11:02:31;;;;;;;;;;;;;;;12.41;65.89;99648.78;4954973;28;1341;-89
2022/04/22 11:05:32;;;;;;;;;;;;;;;12.32;66.88;99647.91;4963391;28;1313;-88
2022/04/22 11:07:57;;;;;;;;;;;;;;;12.31;67.37;99646.28;4878228;29;1958;-89
2022/04/22 11:10:23;;;;;;;;;;;;;;;12.40;67.43;99638.91;4939391;28;1320;-89
2022/04/22 11:12:55;;;;;;;;;;;;;;;12.52;67.42;99635.56;4961221;28;1321;-88
2022/04/22 11:15:39;;;;;;;;;;;;;;;12.58;66.24;99641.75;4952130;28;1325;-88
2022/04/22 11:18:04;;;;;;;;;;;;;;;12.56;66.43;99644.81;4955814;28;926;-90
2022/04/22 11:20:29;;;;;;;;;;;;;;;12.48;66.92;99635.41;4947670;29;1357;-89
2022/04/22 11:22:58;;;;;;;;;;;;;;;12.71;66.01;99636.16;4969311;28;1306;-89
2022/04/22 11:25:27;;;;;;;;;;;;;;;12.70;66.34;99634.53;4994383;28;861;-90
2022/04/22 11:27:56;;;;;;;;;;;;;;;12.73;66.15;99639.41;4976821;28;1947;-90
2022/04/22 11:30:22;;;;;;;;;;;;;;;13.01;64.78;99639.22;4976925;28;1407;-88
2022/04/22 11:32:49;;;;;;;;;;;;;;;13.19;64.32;99633.47;4945069;28;1693;-90
2022/04/22 11:35:14;;;;;;;;;;;;;;;13.31;63.80;99626.56;4938137;29;1319;-90
2022/04/22 11:37:40;;;;;;;;;;;;;;;13.17;64.32;99627.50;4938443;29;1426;-89
2022/04/22 11:40:08;;;;;;;;;;;;;;;13.34;64.30;99620.44;4955402;28;1210;-88
2022/04/22 11:42:37;;;;;;;;;;;;;;;13.63;63.16;99615.13;4938520;29;1343;-89
2022/04/22 11:45:09;;;;;;;;;;;;;;;14.00;62.60;99611.75;4957126;28;1712;-90
2022/04/22 11:47:34;;;;;;;;;;;;;;;14.41;60.99;99617.88;4957267;28;1894;-89
2022/04/22 11:50:00;;;;;;;;;;;;;;;14.53;61.54;99607.81;4957476;28;1422;-90
2022/04/22 11:52:26;;;;;;;;;;;;;;;14.56;61.50;99609.06;4957439;28;1367;-89
2022/04/22 11:54:52;;;;;;;;;;;;;;;14.49;59.14;99609.59;4957117;28;1320;-88
2022/04/22 11:57:18;;;;;;;;;;;;;;;14.47;60.02;99611.03;4957403;28;1205;-90
2022/04/22 12:05:32;;;;;;;;;;;;;;;14.35;60.04;99606.19;4966585;28;1228;-89
2022/04/22 12:05:34;;;;;;;;;;;;;;;14.16;60.28;99608.50;4955472;29;664;-88
2022/04/22 12:08:05;;;;;;;;;;;;;;;14.28;61.66;99603.13;4938104;29;1910;-90
2022/04/22 12:10:30;;;;;;;;;;;;;;;14.39;59.40;99619.00;4955186;29;1281;-88
2022/04/22 12:13:00;;;;;;;;;;;;;;;14.45;59.54;99610.59;4955302;28;1000;-89
2022/04/22 12:15:26;;;;;;;;;;;;;;;14.54;58.85;99600.34;4945455;28;1209;-90
2022/04/22 12:17:51;;;;;;;;;;;;;;;14.82;58.97;99604.28;4949728;28;1562;-90
2022/04/22 12:20:16;;;;;;;;;;;;;;;14.79;58.47;99596.69;4953879;28;1292;-89
2022/04/22 12:22:41;;;;;;;;;;;;;;;14.92;58.72;99595.66;4956371;28;1212;-89
2022/04/22 12:25:10;;;;;;;;;;;;;;;15.21;57.67;99583.84;4958616;29;996;-89
2022/04/22 12:27:36;;;;;;;;;;;;;;;15.34;57.82;99593.00;4958837;28;1951;-89
2022/04/22 12:30:02;;;;;;;;;;;;;;;15.46;58.04;99591.16;4958707;29;1214;-89
2022/04/22 12:32:27;;;;;;;;;;;;;;;15.42;58.03;99587.44;4958604;29;1222;-90
2022/04/22 12:35:08;;;;;;;;;;;;;;;15.54;57.36;99580.41;4957252;28;977;-89
2022/04/22 12:37:33;;;;;;;;;;;;;;;15.79;55.95;99573.88;4958761;29;802;-89
2022/04/22 12:40:07;;;;;;;;;;;;;;;15.97;54.88;99574.53;4957393;28;1344;-88
2022/04/22 12:42:34;;;;;;;;;;;;;;;15.94;53.71;99566.94;4958555;29;830;-90
2022/04/22 12:53:37;;;;;;;;;;;;;;;15.79;55.02;99573.88;4958488;29;648;-89
2022/04/22 12:56:02;;;;;;;;;;;;;;;15.78;55.73;99586.06;4941345;29;1371;-89
2022/04/22 12:58:28;;;;;;;;;;;;;;;15.96;54.94;99587.53;4940670;28;1434;-90
2022/04/22 13:00:54;;;;;;;;;;;;;;;16.10;55.13;99579.75;4987729;28;1309;-90
2022/04/22 13:03:21;;;;;;;;;;;;;;;16.11;54.26;99575.84;4979275;28;1327;-89
2022/04/22 13:05:47;;;;;;;;;;;;;;;16.23;53.65;99573.16;4979512;28;1347;-90
2022/04/22 13:08:14;;;;;;;;;;;;;;;16.35;53.96;99585.34;4979272;28;1898;-89
2022/04/22 13:10:41;;;;;;;;;;;;;;;16.56;54.94;99581.41;4996846;28;1198;-89
2022/04/22 13:13:07;;;;;;;;;;;;;;;16.82;53.50;99585.84;4979090;28;1220;-89
2022/04/22 13:15:32;;;;;;;;;;;;;;;16.46;53.81;99581.03;4957887;28;1792;-89
2022/04/22 13:17:57;;;;;;;;;;;;;;;16.18;54.58;99578.88;4940646;29;1194;-89
2022/04/22 13:20:22;;;;;;;;;;;;;;;16.36;54.09;99578.69;4940564;29;1285;-89
2022/04/22 13:22:48;;;;;;;;;;;;;;;16.49;52.00;99577.59;4956541;29;969;-90
2022/04/22 13:25:15;;;;;;;;;;;;;;;18.84;47.62;99575.19;4940337;29;1317;-90
2022/04/22 13:27:41;;;;;;;;;;;;;;;18.08;49.32;99571.56;4940511;29;1963;-89
2022/04/22 13:30:09;;;;;;;;;;;;;;;20.86;42.85;99565.59;4940449;29;1309;-89
2022/04/22 13:32:34;;;;;;;;;;;;;;;22.17;41.12;99567.50;4958387;28;1349;-90
2022/04/22 13:34:59;;;;;;;;;;;;;;;23.58;38.05;99563.59;4962375;28;1351;-89
2022/04/22 13:37:24;;;;;;;;;;;;;;;23.64;37.85;99551.66;4959527;28;1053;-88
2022/04/22 13:39:49;;;;;;;;;;;;;;;23.99;36.74;99559.38;4959518;28;1234;-90
2022/04/22 13:42:15;;;;;;;;;;;;;;;21.71;40.13;99557.75;4953732;28;1372;-89
2022/04/22 13:52:52;;;;;;;;;;;;;;;17.23;49.17;99570.97;4996548;28;660;-89
2022/04/22 13:55:17;;;;;;;;;;;;;;;17.49;50.19;99563.09;4975793;28;1237;-89
2022/04/22 13:57:42;;;;;;;;;;;;;;;17.52;49.84;99564.34;4959202;28;1209;-88
2022/04/22 14:00:08;;;;;;;;;;;;;;;19.28;44.89;99562.00;4958780;28;1465;-89
2022/04/22 14:02:33;;;;;;;;;;;;;;;19.82;44.56;99559.22;4959154;28;1355;-89
2022/04/22 14:04:58;;;;;;;;;;;;;;;20.60;42.86;99566.34;4958847;28;1410;-90